sensor_id;sensor_type;location;lat;lon;timestamp;pressure;altitude;pressure_sealevel;temperature;humidity
45113;BME280;30873;53.908;27.576;2023-01-08T00:05:16;1027.1;;;-7.1;63
45113;BME280;30873;53.908;27.576;2023-01-08T00:10:14;1027;;;-7.1;62.9
45113;BME280;30873;53.908;27.576;2023-01-08T00:14:34;1027;;;-7.1;62.9
45113;BME280;30873;53.908;27.576;2023-01-08T00:19:34;1027.1;;;-7;62.9
45113;BME280;30873;53.908;27.576;2023-01-08T00:25:06;1027.1;;;-7.1;63
45113;BME280;30873;53.908;27.576;2023-01-08T00:30:04;1027.1;;;-7;63
45113;BME280;30873;53.908;27.576;2023-01-08T00:34:34;1027.2;;;-6.9;63.1
45113;BME280;30873;53.908;27.576;2023-01-08T00:39:54;1027.2;;;-6.7;62.8
45113;BME280;30873;53.908;27.576;2023-01-08T00:45:04;1027.1;;;-6.8;62.6
45113;BME280;30873;53.908;27.576;2023-01-08T00:49:34;1027.1;;;-6.8;62.7
45113;BME280;30873;53.908;27.576;2023-01-08T00:55:16;1027.2;;;-6.5;62.5
45113;BME280;30873;53.908;27.576;2023-01-08T00:59:52;1027.2;;;-6.5;62.5
45113;BME280;30873;53.908;27.576;2023-01-08T01:04:54;1027.2;;;-6.6;62.2
45113;BME280;30873;53.908;27.576;2023-01-08T01:09:34;1027.1;;;-6.6;62.3
45113;BME280;30873;53.908;27.576;2023-01-08T01:15:16;1027.1;;;-6.6;62.5
45113;BME280;30873;53.908;27.576;2023-01-08T01:20:14;1027;;;-6.5;62.6
45113;BME280;30873;53.908;27.576;2023-01-08T01:24:42;1027;;;-6.5;62.6
45113;BME280;30873;53.908;27.576;2023-01-08T01:30:04;1027;;;-6.4;62.6
45113;BME280;30873;53.908;27.576;2023-01-08T01:35:04;1027;;;-6.4;62.3
45113;BME280;30873;53.908;27.576;2023-01-08T01:40:12;1026.9;;;-6.3;62.2
45113;BME280;30873;53.908;27.576;2023-01-08T01:45:16;1026.9;;;-6.4;62.2
45113;BME280;30873;53.908;27.576;2023-01-08T01:49:34;1026.9;;;-6.4;62.2
45113;BME280;30873;53.908;27.576;2023-01-08T01:54:52;1026.8;;;-6.3;62.4
45113;BME280;30873;53.908;27.576;2023-01-08T02:00:17;1026.6;;;-6.3;62.2
45113;BME280;30873;53.908;27.576;2023-01-08T02:05:14;1026.6;;;-6.2;62.2
45113;BME280;30873;53.908;27.576;2023-01-08T02:10:15;1026.5;;;-6.1;62
45113;BME280;30873;53.908;27.576;2023-01-08T02:14:34;1026.5;;;-6.1;62
45113;BME280;30873;53.908;27.576;2023-01-08T02:20:07;1026.5;;;-6.1;61.8
45113;BME280;30873;53.908;27.576;2023-01-08T02:25:10;1026.5;;;-6.1;61.9
45113;BME280;30873;53.908;27.576;2023-01-08T02:30:18;1026.5;;;-6.1;61.7
45113;BME280;30873;53.908;27.576;2023-01-08T02:35:18;1026.5;;;-6.2;62.1
45113;BME280;30873;53.908;27.576;2023-01-08T02:40:14;1026.5;;;-6.2;62.1
45113;BME280;30873;53.908;27.576;2023-01-08T02:44:43;1026.5;;;-6.1;62.2
45113;BME280;30873;53.908;27.576;2023-01-08T02:49:46;1026.5;;;-6.1;62.2
45113;BME280;30873;53.908;27.576;2023-01-08T02:55:21;1026.4;;;-6.2;62.1
45113;BME280;30873;53.908;27.576;2023-01-08T03:00:18;1026.4;;;-6.1;62.4
45113;BME280;30873;53.908;27.576;2023-01-08T03:04:35;1026.4;;;-6.1;62.4
45113;BME280;30873;53.908;27.576;2023-01-08T03:10:06;1026.3;;;-6.1;62.5
45113;BME280;30873;53.908;27.576;2023-01-08T03:15:06;1026.3;;;-6.1;62.5
45113;BME280;30873;53.908;27.576;2023-01-08T03:20:17;1026.3;;;-5.9;62.5
45113;BME280;30873;53.908;27.576;2023-01-08T03:25:02;1026.3;;;-5.9;62.5
45113;BME280;30873;53.908;27.576;2023-01-08T03:29:56;1026.4;;;-6;62.7
45113;BME280;30873;53.908;27.576;2023-01-08T03:34:43;1026.4;;;-6;62.8
45113;BME280;30873;53.908;27.576;2023-01-08T03:39:37;1026.3;;;-6;62.8
45113;BME280;30873;53.908;27.576;2023-01-08T03:45:16;1026.1;;;-6.1;63.3
45113;BME280;30873;53.908;27.576;2023-01-08T03:50:20;1026.1;;;-6;63.3
45113;BME280;30873;53.908;27.576;2023-01-08T03:54:46;1026.1;;;-6;63.3
45113;BME280;30873;53.908;27.576;2023-01-08T04:00:10;1026.1;;;-6.1;63.4
45113;BME280;30873;53.908;27.576;2023-01-08T04:05:08;1026.1;;;-6;63.3
45113;BME280;30873;53.908;27.576;2023-01-08T04:10:18;1026;;;-6;63.4
45113;BME280;30873;53.908;27.576;2023-01-08T04:15:18;1026.1;;;-6;63.5
45113;BME280;30873;53.908;27.576;2023-01-08T04:19:34;1026.1;;;-6;63.5
45113;BME280;30873;53.908;27.576;2023-01-08T04:24:58;1026.1;;;-6;63.4
45113;BME280;30873;53.908;27.576;2023-01-08T04:29:56;1026.1;;;-6;63.3
45113;BME280;30873;53.908;27.576;2023-01-08T04:35:16;1026;;;-6;63.7
45113;BME280;30873;53.908;27.576;2023-01-08T04:40:04;1026;;;-6;63.7
45113;BME280;30873;53.908;27.576;2023-01-08T04:44:48;1026.1;;;-5.9;63.7
45113;BME280;30873;53.908;27.576;2023-01-08T04:50:10;1026;;;-5.9;63.8
45113;BME280;30873;53.908;27.576;2023-01-08T04:55:08;1026;;;-5.9;63.9
45113;BME280;30873;53.908;27.576;2023-01-08T05:00:20;1026;;;-5.8;63.8
45113;BME280;30873;53.908;27.576;2023-01-08T05:05:20;1025.9;;;-5.8;63.8
45113;BME280;30873;53.908;27.576;2023-01-08T05:09:56;1025.9;;;-5.8;63.8
45113;BME280;30873;53.908;27.576;2023-01-08T05:14:42;1025.9;;;-5.6;63.9
45113;BME280;30873;53.908;27.576;2023-01-08T05:19:48;1025.9;;;-5.6;63.6
45113;BME280;30873;53.908;27.576;2023-01-08T05:25:20;1025.9;;;-5.6;63.8
45113;BME280;30873;53.908;27.576;2023-01-08T05:29:58;1025.9;;;-5.6;63.8
45113;BME280;30873;53.908;27.576;2023-01-08T05:34:54;1025.9;;;-5.5;63.8
45113;BME280;30873;53.908;27.576;2023-01-08T05:40:18;1025.8;;;-5.7;64
45113;BME280;30873;53.908;27.576;2023-01-08T05:45:06;1025.8;;;-5.7;64
45113;BME280;30873;53.908;27.576;2023-01-08T05:50:16;1025.8;;;-5.6;64.4
45113;BME280;30873;53.908;27.576;2023-01-08T05:54:34;1025.8;;;-5.6;64.4
45113;BME280;30873;53.908;27.576;2023-01-08T05:59:56;1025.8;;;-5.5;64.4
45113;BME280;30873;53.908;27.576;2023-01-08T06:04:34;1025.8;;;-5.4;64.5
45113;BME280;30873;53.908;27.576;2023-01-08T06:09:46;1025.8;;;-5.4;64.2
45113;BME280;30873;53.908;27.576;2023-01-08T06:15:16;1025.8;;;-5.5;64.5
45113;BME280;30873;53.908;27.576;2023-01-08T06:19:56;1025.8;;;-5.5;64.5
45113;BME280;30873;53.908;27.576;2023-01-08T06:24:34;1025.8;;;-5.5;64.8
45113;BME280;30873;53.908;27.576;2023-01-08T06:30:08;1025.8;;;-5.4;64.7
45113;BME280;30873;53.908;27.576;2023-01-08T06:35:08;1025.9;;;-5.4;64.7
45113;BME280;30873;53.908;27.576;2023-01-08T06:40:16;1026;;;-5.2;64.7
45113;BME280;30873;53.908;27.576;2023-01-08T06:44:34;1026;;;-5.2;64.7
45113;BME280;30873;53.908;27.576;2023-01-08T06:49:56;1026;;;-5.2;64.4
45113;BME280;30873;53.908;27.576;2023-01-08T06:54:46;1026;;;-5.1;64.5
45113;BME280;30873;53.908;27.576;2023-01-08T06:59:34;1026;;;-5.1;64.4
45113;BME280;30873;53.908;27.576;2023-01-08T07:05:20;1026.1;;;-5.1;64.7
45113;BME280;30873;53.908;27.576;2023-01-08T07:09:56;1026.1;;;-5.1;64.7
45113;BME280;30873;53.908;27.576;2023-01-08T07:14:48;1026.1;;;-4.9;64.6
45113;BME280;30873;53.908;27.576;2023-01-08T07:20:10;1026.1;;;-4.8;64.3
45113;BME280;30873;53.908;27.576;2023-01-08T07:25:18;1026;;;-4.7;64.1
45113;BME280;30873;53.908;27.576;2023-01-08T07:30:18;1026;;;-4.6;63.9
45113;BME280;30873;53.908;27.576;2023-01-08T07:34:34;1026;;;-4.6;63.9
45113;BME280;30873;53.908;27.576;2023-01-08T07:39:46;1025.9;;;-4.6;63.7
45113;BME280;30873;53.908;27.576;2023-01-08T07:44:58;1025.8;;;-4.5;63.4
45113;BME280;30873;53.908;27.576;2023-01-08T07:49:34;1025.9;;;-4.5;63.4
45113;BME280;30873;53.908;27.576;2023-01-08T07:55:20;1025.9;;;-4.2;63.2
45113;BME280;30873;53.908;27.576;2023-01-08T07:59:48;1025.9;;;-4.2;63.2
45113;BME280;30873;53.908;27.576;2023-01-08T08:04:46;1025.9;;;-4.3;62.8
45113;BME280;30873;53.908;27.576;2023-01-08T08:10:06;1026;;;-4.3;63.1
45113;BME280;30873;53.908;27.576;2023-01-08T08:14:56;1026;;;-4.2;63
45113;BME280;30873;53.908;27.576;2023-01-08T08:20:18;1026.1;;;-4.1;62.8
45113;BME280;30873;53.908;27.576;2023-01-08T08:24:44;1026.1;;;-4.1;62.8
45113;BME280;30873;53.908;27.576;2023-01-08T08:30:08;1026;;;-4.1;62.9
45113;BME280;30873;53.908;27.576;2023-01-08T08:34:56;1026;;;-4.1;63.1
45113;BME280;30873;53.908;27.576;2023-01-08T08:39:46;1025.9;;;-4;63
45113;BME280;30873;53.908;27.576;2023-01-08T08:45:20;1025.9;;;-3.6;62.5
45113;BME280;30873;53.908;27.576;2023-01-08T08:49:34;1025.9;;;-3.6;62.5
45113;BME280;30873;53.908;27.576;2023-01-08T08:54:58;1025.9;;;-3.5;62.2
45113;BME280;30873;53.908;27.576;2023-01-08T09:00:08;1025.8;;;-3.5;62.3
45113;BME280;30873;53.908;27.576;2023-01-08T09:05:08;1025.8;;;-3.6;62.2
45113;BME280;30873;53.908;27.576;2023-01-08T09:10:16;1025.7;;;-3.4;62.7
45113;BME280;30873;53.908;27.576;2023-01-08T09:14:56;1025.7;;;-3.4;62.7
45113;BME280;30873;53.908;27.576;2023-01-08T09:19:46;1025.6;;;-3.4;62.6
45113;BME280;30873;53.908;27.576;2023-01-08T09:24:58;1025.6;;;-3.4;63
45113;BME280;30873;53.908;27.576;2023-01-08T09:29:46;1025.5;;;-3.4;63.1
45113;BME280;30873;53.908;27.576;2023-01-08T09:35:18;1025.4;;;-3.3;63.2
45113;BME280;30873;53.908;27.576;2023-01-08T09:39:56;1025.4;;;-3.3;63.2
45113;BME280;30873;53.908;27.576;2023-01-08T09:44:35;1025.3;;;-3.3;63.7
45113;BME280;30873;53.908;27.576;2023-01-08T09:50:10;1025.2;;;-3.1;63.6
45113;BME280;30873;53.908;27.576;2023-01-08T09:55:08;1025.1;;;-3.2;63.7
45113;BME280;30873;53.908;27.576;2023-01-08T10:00:05;1025.1;;;-3.1;64.1
45113;BME280;30873;53.908;27.576;2023-01-08T10:04:34;1025.1;;;-3;64.1
45113;BME280;30873;53.908;27.576;2023-01-08T10:10:15;1025.1;;;-3.2;64.6
45113;BME280;30873;53.908;27.576;2023-01-08T10:15:15;1025.1;;;-3;65
45113;BME280;30873;53.908;27.576;2023-01-08T10:20:09;1025.1;;;-3;65
45113;BME280;30873;53.908;27.576;2023-01-08T10:25:02;1025.1;;;-3;64.9
45113;BME280;30873;53.908;27.576;2023-01-08T10:29:34;1025.1;;;-3;65.5
45113;BME280;30873;53.908;27.576;2023-01-08T10:35:18;1024.9;;;-3;66.2
45113;BME280;30873;53.908;27.576;2023-01-08T10:40:19;1024.9;;;-2.9;66.3
45113;BME280;30873;53.908;27.576;2023-01-08T10:45:18;1024.9;;;-2.9;66.3
45113;BME280;30873;53.908;27.576;2023-01-08T10:54:54;1024.7;;;-2.9;66.6
45113;BME280;30873;53.908;27.576;2023-01-08T11:00:24;1024.5;;;-2.8;66.9
45113;BME280;30873;53.908;27.576;2023-01-08T11:05:14;1024.5;;;-2.8;66.8
45113;BME280;30873;53.908;27.576;2023-01-08T11:09:44;1024.5;;;-2.8;66.8
45113;BME280;30873;53.908;27.576;2023-01-08T11:14:44;1024.5;;;-2.7;66.8
45113;BME280;30873;53.908;27.576;2023-01-08T11:20:05;1024.4;;;-2.7;66.9
45113;BME280;30873;53.908;27.576;2023-01-08T11:25:20;1024.3;;;-2.8;66.9
45113;BME280;30873;53.908;27.576;2023-01-08T11:30:19;1024.2;;;-2.8;67.3
45113;BME280;30873;53.908;27.576;2023-01-08T11:35:11;1024.2;;;-2.8;67.3
45113;BME280;30873;53.908;27.576;2023-01-08T11:40:11;1024.2;;;-2.8;67.4
45113;BME280;30873;53.908;27.576;2023-01-08T21:05:06;1024.2;;;-2.8;67.4
45113;BME280;30873;53.908;27.576;2023-01-08T21:09:34;1020.9;;;-2.6;72.5
45113;BME280;30873;53.908;27.576;2023-01-08T21:15:16;1020.8;;;-2.5;72.4
45113;BME280;30873;53.908;27.576;2023-01-08T21:20:20;1020.8;;;-2.4;72.3
45113;BME280;30873;53.908;27.576;2023-01-08T21:25:18;1020.8;;;-2.4;72.3
45113;BME280;30873;53.908;27.576;2023-01-08T21:29:44;1020.8;;;-2.4;72.3
45113;BME280;30873;53.908;27.576;2023-01-08T21:34:56;1020.8;;;-2.4;72.5
45113;BME280;30873;53.908;27.576;2023-01-08T21:39:54;1020.7;;;-2.4;72.6
45113;BME280;30873;53.908;27.576;2023-01-08T21:44:56;1020.7;;;-2.3;72.8
45113;BME280;30873;53.908;27.576;2023-01-08T21:50:19;1020.7;;;-2.2;72.6
45113;BME280;30873;53.908;27.576;2023-01-08T21:55:08;1020.7;;;-2.2;72.6
45113;BME280;30873;53.908;27.576;2023-01-08T21:59:46;1020.6;;;-2.2;72.4
45113;BME280;30873;53.908;27.576;2023-01-08T22:04:44;1020.5;;;-2.2;72.6
45113;BME280;30873;53.908;27.576;2023-01-08T22:10:20;1020.2;;;-2.1;72.5
45113;BME280;30873;53.908;27.576;2023-01-08T22:15:18;1020.2;;;-2;72.5
45113;BME280;30873;53.908;27.576;2023-01-08T22:19:56;1020.2;;;-2;72.5
45113;BME280;30873;53.908;27.576;2023-01-08T22:24:56;1020.3;;;-2;72.4
45113;BME280;30873;53.908;27.576;2023-01-08T22:29:34;1020.2;;;-1.9;72.5
45113;BME280;30873;53.908;27.576;2023-01-08T22:34:46;1020.2;;;-1.9;72.4
45113;BME280;30873;53.908;27.576;2023-01-08T22:40:18;1020.1;;;-1.9;72.7
45113;BME280;30873;53.908;27.576;2023-01-08T22:45:08;1020.1;;;-1.9;72.7
45113;BME280;30873;53.908;27.576;2023-01-08T22:49:56;1020;;;-1.8;72.5
45113;BME280;30873;53.908;27.576;2023-01-08T22:54:56;1019.9;;;-1.9;72.6
45113;BME280;30873;53.908;27.576;2023-01-08T23:00:17;1019.8;;;-1.9;72.7
45113;BME280;30873;53.908;27.576;2023-01-08T23:05:16;1019.8;;;-1.8;72.7
45113;BME280;30873;53.908;27.576;2023-01-08T23:10:02;1019.8;;;-1.8;72.7
45113;BME280;30873;53.908;27.576;2023-01-08T23:14:42;1019.9;;;-1.7;72.5
45113;BME280;30873;53.908;27.576;2023-01-08T23:19:52;1019.9;;;-1.8;72.3
45113;BME280;30873;53.908;27.576;2023-01-08T23:24:42;1019.8;;;-1.8;72.4
45113;BME280;30873;53.908;27.576;2023-01-08T23:30:05;1019.7;;;-1.7;72.4
45113;BME280;30873;53.908;27.576;2023-01-08T23:35:04;1019.6;;;-1.7;72.2
45113;BME280;30873;53.908;27.576;2023-01-08T23:39:42;1019.4;;;-1.7;72.2
45113;BME280;30873;53.908;27.576;2023-01-08T23:44:54;1019.2;;;-1.6;72
45113;BME280;30873;53.908;27.576;2023-01-08T23:50:07;1019.1;;;-1.7;72
45113;BME280;30873;53.908;27.576;2023-01-08T23:55:14;1019;;;-1.7;72
45113;BME280;30873;53.908;27.576;2023-01-08T23:59:42;1019;;;-1.7;72
